Latest Weather Observations for Ballarat

IDV60801

Issued at 9:35 am EST Friday 19 September 2014 (issued every 30 minutes, with the page automatically refreshed every 10 minutes)

About weather observations | Map of weather stations | Latest weather observations for VIC | Other Formats
Station Details ID: 089002 Name: BALLARAT AERODROME Lat: -37.51 Lon: 143.79 Height: 435.2 m
Data from the previous 72 hours. | See also: Recent months at Ballarat
Date/Time
EST
Temp
°C
App
Temp
°C
Dew
Point
Rel
Hum
%
Delta-T
°C
Wind Press
QNH
hPa
Press
MSL
hPa
Rain
since 9 am
mm
Dir
 
Spd
km/h
Gust
km/h
Spd
kts
Gust
kts
19/09:30am 8.7 4.2 6.2 84 1.2 SSW 19 32 10 17 1025.5 1025.9 0.0
19/09:00am 8.0 5.1 6.5 90 0.7 SW 11 19 6 10 1025.5 1025.9 0.0
19/08:30am 6.8 3.5 6.5 98 0.1 SSW 13 19 7 10 1025.3 1025.8 0.0
19/08:00am 6.2 3.2 5.9 98 0.1 SW 11 17 6 9 1025.1 1025.5 0.0
19/07:30am 4.3 1.9 4.2 99 0.0 SSW 6 9 3 5 1024.9 1025.3 0.0
19/07:00am 3.1 0.4 2.8 98 0.1 S 6 7 3 4 1025.0 1025.4 0.0
19/06:30am 3.5 0.3 3.2 98 0.1 WSW 9 11 5 6 1024.6 1025.0 0.0
19/06:00am 4.2 1.5 3.9 98 0.1 SW 7 9 4 5 1024.3 1024.7 0.0
19/05:30am 4.1 1.0 3.8 98 0.1 SW 9 11 5 6 1024.1 1024.5 0.0
19/05:00am 4.6 1.6 4.3 98 0.1 SW 9 13 5 7 1023.7 1024.1 0.0
19/04:30am 4.2 1.5 3.9 98 0.1 SSW 7 11 4 6 1023.7 1024.1 0.0
19/04:00am 4.4 1.3 3.4 93 0.4 SSW 9 13 5 7 1023.6 1024.0 0.0
19/03:30am 3.8 0.6 2.9 94 0.4 S 9 11 5 6 1023.5 1023.9 0.0
19/03:00am 5.1 1.7 3.8 91 0.6 S 11 13 6 7 1023.6 1024.0 0.0
19/02:30am 4.8 2.3 4.7 99 0.0 SSW 7 9 4 5 1023.9 1024.3 0.0
19/02:00am 2.6 -0.3 2.5 99 0.0 S 7 11 4 6 1024.1 1024.5 0.0
19/01:30am 1.1 -1.1 1.0 99 0.0 SE 2 9 1 5 1024.4 1024.8 0.0
19/01:11am 0.9 -1.7 0.8 99 0.0 E 4 7 2 4 1024.5 1024.9 0.0
19/01:00am 0.7 -2.3 0.6 99 0.0 SE 6 9 3 5 1024.6 1025.0 0.0
19/12:30am 0.6 -1.7 0.5 99 0.0 SE 2 6 1 3 1024.7 1025.1 0.0
19/12:19am 0.9 -2.1 0.8 99 0.0 SE 6 7 3 4 1024.7 1025.1 0.0
19/12:00am 1.4 -1.5 1.3 99 0.0 SSW 6 7 3 4 1024.8 1025.2 0.0
 
Date/Time
EST
Temp
°C
App
Temp
°C
Dew
Point
Rel
Hum
%
Delta-T
°C
Wind Press
QNH
hPa
Press
MSL
hPa
Rain
since 9 am
mm
Dir
 
Spd
km/h
Gust
km/h
Spd
kts
Gust
kts
18/11:30pm 2.0 -1.0 1.9 99 0.0 S 7 7 4 4 1025.0 1025.4 0.0
18/11:00pm 2.3 -0.7 2.0 98 0.1 S 7 9 4 5 1025.1 1025.5 0.0
18/10:30pm 2.7 -0.6 2.4 98 0.1 S 9 13 5 7 1025.1 1025.5 0.0
18/10:00pm 4.3 1.3 4.0 98 0.1 SSW 9 13 5 7 1025.1 1025.5 0.0
18/09:30pm 4.6 1.2 3.9 95 0.3 S 11 15 6 8 1025.0 1025.4 0.0
18/09:00pm 5.4 2.5 4.4 93 0.4 SSW 9 13 5 7 1025.0 1025.4 0.0
18/08:30pm 5.3 1.4 3.5 88 0.8 SSW 13 17 7 9 1024.6 1025.0 0.0
18/08:00pm 5.6 2.0 2.8 82 1.2 SSW 11 15 6 8 1024.6 1025.0 0.0
18/07:30pm 6.1 2.5 2.9 80 1.4 SSW 11 15 6 8 1024.4 1024.8 0.0
18/07:00pm 6.5 2.5 2.8 77 1.6 SSW 13 20 7 11 1024.2 1024.6 0.0
18/06:30pm 7.1 3.0 2.2 71 2.1 SSW 13 19 7 10 1024.1 1024.5 0.0
18/06:00pm 8.1 3.3 2.6 68 2.4 S 17 22 9 12 1023.7 1024.1 0.0
18/05:30pm 8.5 3.6 2.1 64 2.7 SSW 17 22 9 12 1023.4 1023.8 0.0
18/05:00pm 9.6 4.3 2.9 63 2.9 S 20 30 11 16 1023.1 1023.4 0.0
18/04:30pm 10.5 5.2 2.8 59 3.4 S 20 28 11 15 1022.6 1023.0 0.0
18/04:00pm 11.0 5.7 3.1 58 3.5 SSW 20 33 11 18 1022.5 1022.9 0.0
18/03:30pm 11.4 5.4 3.4 58 3.6 SW 24 35 13 19 1022.4 1022.8 0.0
18/03:00pm 11.6 5.8 4.3 61 3.4 WSW 24 33 13 18 1022.3 1022.7 0.0
18/02:30pm 10.5 6.4 4.4 66 2.8 SSW 15 22 8 12 1022.4 1022.8 0.0
18/02:00pm 8.7 1.9 5.1 78 1.6 SSW 30 44 16 24 1022.5 1022.9 0.0
18/01:30pm 11.2 6.1 4.0 61 3.3 SW 20 30 11 16 1022.5 1022.9 0.0
18/01:00pm 10.3 4.7 3.6 63 3.0 SSW 22 32 12 17 1022.7 1023.1 0.0
18/12:30pm 8.1 2.7 4.3 77 1.7 SSW 22 32 12 17 1023.0 1023.3 0.0
18/12:00pm 10.2 5.2 4.4 67 2.6 SW 20 28 11 15 1022.8 1023.2 0.0
18/11:30am 9.5 3.9 3.7 67 2.6 SSW 22 32 12 17 1023.0 1023.3 0.0
18/11:00am 8.9 3.9 3.5 69 2.4 SSW 19 28 10 15 1023.2 1023.5 0.0
18/10:30am 8.2 3.0 3.3 71 2.1 SSW 20 28 11 15 1023.2 1023.5 0.0
18/10:00am 8.7 4.3 4.7 76 1.8 SSW 17 24 9 13 1023.1 1023.4 0.0
18/09:30am 7.9 2.8 3.9 76 1.8 SSW 20 32 11 17 1023.0 1023.3 0.0
18/09:17am 7.6 2.6 4.6 81 1.3 SSW 20 28 11 15 1022.8 1023.2 0.0
18/09:00am 7.5 3.4 6.1 91 0.6 SSW 17 24 9 13 1022.7 1023.1 2.0
18/08:30am 7.1 3.5 6.8 98 0.1 SSW 15 22 8 12 1022.6 1023.0 2.0
18/08:00am 5.3 1.7 5.2 99 0.0 SW 13 20 7 11 1022.4 1022.8 2.0
18/07:30am 4.6 0.9 4.5 99 0.0 SW 13 19 7 10 1022.2 1022.6 2.0
18/07:12am 4.4 1.4 4.3 99 0.0 SW 9 11 5 6 1022.0 1022.4 2.0
18/07:00am 4.3 1.3 4.2 99 0.0 WSW 9 13 5 7 1021.9 1022.3 2.0
18/06:40am 4.1 1.5 4.0 99 0.0 SW 7 13 4 7 1021.7 1022.1 2.0
18/06:30am 4.2 1.2 4.1 99 0.0 SW 9 13 5 7 1021.6 1022.0 2.0
18/06:00am 4.2 1.6 4.1 99 0.0 SW 7 9 4 5 1021.2 1021.5 2.0
18/05:30am 4.8 1.9 4.7 99 0.0 SW 9 15 5 8 1020.9 1021.2 1.8
18/05:00am 4.8 1.1 4.7 99 0.0 SW 13 20 7 11 1020.7 1021.0 1.8
18/04:30am 4.9 0.5 4.8 99 0.0 WSW 17 22 9 12 1020.4 1020.8 1.8
18/04:02am 4.9 0.9 4.8 99 0.0 SW 15 20 8 11 1020.0 1020.4 1.8
18/04:00am 4.9 0.9 4.8 99 0.0 SW 15 20 8 11 1020.0 1020.4 1.8
18/03:57am 4.8 0.8 4.7 99 0.0 SW 15 19 8 10 1019.9 1020.3 1.8
18/03:30am 4.8 0.8 4.7 99 0.0 WSW 15 22 8 12 1019.9 1020.3 1.8
18/03:00am 4.7 1.0 4.6 99 0.0 SW 13 19 7 10 1019.9 1020.3 1.8
18/02:30am 4.3 0.6 4.2 99 0.0 SW 13 17 7 9 1019.8 1020.2 1.8
18/02:00am 4.9 0.1 4.8 99 0.0 WSW 19 28 10 15 1020.0 1020.4 1.8
18/01:51am 4.9 0.1 4.8 99 0.0 WSW 19 26 10 14 1020.1 1020.5 1.8
18/01:30am 4.9 0.9 4.8 99 0.0 WSW 15 20 8 11 1020.2 1020.6 1.6
18/01:14am 5.0 0.2 4.9 99 0.0 WSW 19 26 10 14 1020.1 1020.5 1.6
18/01:00am 4.9 0.5 4.8 99 0.0 SW 17 26 9 14 1020.3 1020.7 1.6
18/12:30am 4.9 0.1 4.8 99 0.0 WSW 19 28 10 15 1020.3 1020.7 1.0
18/12:00am 4.8 -0.6 4.7 99 0.0 WSW 22 30 12 16 1020.3 1020.7 1.0
 
Date/Time
EST
Temp
°C
App
Temp
°C
Dew
Point
Rel
Hum
%
Delta-T
°C
Wind Press
QNH
hPa
Press
MSL
hPa
Rain
since 9 am
mm
Dir
 
Spd
km/h
Gust
km/h
Spd
kts
Gust
kts
17/11:30pm 4.5 0.0 4.4 99 0.0 WSW 17 26 9 14 1020.3 1020.7 1.0
17/11:00pm 4.5 0.0 4.2 98 0.1 WSW 17 22 9 12 1020.2 1020.6 1.0
17/10:30pm 4.9 0.1 4.6 98 0.1 WSW 19 24 10 13 1020.2 1020.6 1.0
17/10:03pm 4.7 0.6 4.4 98 0.1 WSW 15 20 8 11 1020.0 1020.4 1.0
17/10:00pm 4.7 0.6 4.4 98 0.1 WSW 15 20 8 11 1020.0 1020.4 1.0
17/09:30pm 4.6 0.9 4.2 97 0.2 WSW 13 19 7 10 1019.8 1020.2 1.0
17/09:00pm 5.3 0.4 4.0 91 0.6 WSW 19 26 10 14 1019.7 1020.1 1.0
17/08:30pm 5.8 0.0 4.3 90 0.7 WSW 24 39 13 21 1019.4 1019.8 1.0
17/08:00pm 5.6 1.1 4.1 90 0.7 WSW 17 24 9 13 1019.1 1019.4 1.0
17/07:30pm 5.5 1.2 3.3 86 0.9 SW 15 20 8 11 1018.9 1019.2 1.0
17/07:00pm 5.7 0.6 3.0 83 1.1 SW 19 28 10 15 1018.8 1019.1 1.0
17/06:30pm 6.2 1.2 3.4 82 1.2 SW 19 28 10 15 1018.6 1018.9 1.0
17/06:00pm 6.3 0.4 4.0 85 1.0 SW 24 35 13 19 1018.0 1018.4 1.0
17/05:30pm 7.6 2.0 3.5 75 1.8 SW 22 33 12 18 1017.5 1017.9 1.0
17/05:00pm 7.5 0.0 3.7 77 1.7 WSW 32 54 17 29 1017.1 1017.4 1.0
17/04:30pm 7.5 0.9 4.1 79 1.5 SW 28 46 15 25 1016.8 1017.1 1.0
17/04:26pm 7.4 0.8 4.0 79 1.5 SW 28 46 15 25 1016.7 1017.0 1.0
17/04:00pm 7.7 2.5 5.7 87 0.9 WSW 22 33 12 18 1016.3 1016.6 1.0
17/03:30pm 7.1 1.4 6.8 98 0.1 WSW 26 41 14 22 1016.4 1016.7 0.8
17/03:00pm 7.1 0.6 6.5 96 0.3 SW 30 54 16 29 1016.1 1016.4 0.4
17/02:41pm 9.7 2.7 4.1 68 2.5 WSW 30 54 16 29 1015.7 1016.0 0.2
17/02:30pm 8.5 1.6 4.7 77 1.7 SW 30 44 16 24 1015.9 1016.2 0.2
17/02:10pm 9.9 0.9 2.7 61 3.2 WSW 39 57 21 31 1015.3 1015.6 0.2
17/02:00pm 9.9 2.7 3.0 62 3.0 WSW 30 46 16 25 1015.4 1015.7 0.2
17/01:30pm 10.0 2.1 1.1 54 3.8 WSW 32 46 17 25 1015.4 1015.7 0.2
17/01:05pm 10.6 2.6 0.1 48 4.4 WSW 32 50 17 27 1015.3 1015.6 0.2
17/01:00pm 10.1 1.8 2.2 58 3.4 WSW 35 48 19 26 1015.4 1015.7 0.2
17/12:34pm 10.2 2.6 2.6 59 3.3 WSW 32 50 17 27 1015.3 1015.6 0.2
17/12:30pm 10.1 3.0 3.6 64 2.9 WSW 30 41 16 22 1015.3 1015.6 0.2
17/12:00pm 8.6 1.7 7.1 90 0.7 W 33 44 18 24 1015.3 1015.6 0.2
17/11:30am 8.9 0.4 5.1 77 1.7 W 39 57 21 31 1015.2 1015.5 0.2
17/11:28am 10.1 2.2 4.3 67 2.6 W 35 57 19 31 1015.1 1015.4 0.2
17/11:00am 9.8 2.4 5.2 73 2.1 WSW 33 48 18 26 1015.1 1015.4 0.2
17/10:45am 9.6 1.9 5.4 75 2.0 W 35 56 19 30 1015.0 1015.3 0.2
17/10:30am 8.9 1.9 6.0 82 1.4 WSW 32 48 17 26 1015.1 1015.4 0.2
17/10:00am 7.6 2.0 7.3 98 0.1 WSW 26 44 14 24 1015.1 1015.4 0.2
17/09:30am 8.6 2.9 6.6 87 0.9 WSW 26 37 14 20 1014.8 1015.1 0.0
17/09:26am 8.5 3.2 6.6 88 0.9 WSW 24 32 13 17 1014.8 1015.1 0.0
17/09:00am 8.1 2.4 6.7 91 0.7 W 26 37 14 20 1014.9 1015.2 0.8
17/08:30am 7.1 1.8 6.8 98 0.1 W 24 32 13 17 1014.6 1014.9 -
17/08:00am 6.9 1.2 6.6 98 0.1 W 26 32 14 17 1014.5 1014.8 -
17/07:45am 6.6 1.2 6.3 98 0.1 W 24 35 13 19 1014.2 1014.5 -
17/07:30am 6.4 1.3 6.1 98 0.1 W 22 30 12 16 1014.1 1014.4 -
17/07:00am 5.8 1.2 5.5 98 0.1 W 19 24 10 13 1013.8 1014.1 -
17/06:30am 5.5 1.6 5.2 98 0.1 W 15 20 8 11 1013.7 1014.0 -
17/06:00am 6.0 1.8 5.7 98 0.1 W 17 22 9 12 1013.8 1014.1 -
17/05:58am 5.9 1.7 5.6 98 0.1 W 17 24 9 13 1013.7 1014.0 -
17/05:30am 6.4 1.7 6.1 98 0.1 W 20 28 11 15 1013.6 1013.9 -
17/05:26am 6.4 1.7 6.1 98 0.1 W 20 28 11 15 1013.7 1014.0 -
17/05:13am 6.3 1.6 6.2 99 0.0 W 20 28 11 15 1013.6 1013.9 -
17/05:00am 6.3 1.2 6.2 99 0.0 W 22 32 12 17 1013.6 1013.9 -
17/04:30am 6.5 1.9 6.4 99 0.0 W 20 30 11 16 1013.3 1013.5 -
17/04:00am 6.2 1.5 6.1 99 0.0 W 20 26 11 14 1013.1 1013.4 -
17/03:30am 6.8 1.9 6.8 100 0.0 W 22 33 12 18 1013.1 1013.4 -
17/03:19am 6.7 1.4 6.7 100 0.0 W 24 32 13 17 1013.0 1013.3 -
17/03:04am 6.9 2.0 6.9 100 0.0 W 22 32 12 17 1013.1 1013.4 -
17/03:00am 6.9 2.6 6.9 100 0.0 W 19 30 10 16 1013.1 1013.4 0.2
17/02:54am 6.8 3.2 6.8 100 0.0 W 15 22 8 12 1013.1 1013.4 -
17/02:39am 6.0 3.0 6.0 100 0.0 WNW 11 15 6 8 1013.1 1013.4 -
17/02:30am 5.4 3.0 5.4 100 0.0 NW 7 9 4 5 1013.1 1013.4 -
17/02:09am 6.3 3.7 6.3 100 0.0 NNW 9 11 5 6 1013.1 1013.4 -
17/02:07am 6.4 3.9 6.4 100 0.0 NNW 9 11 5 6 1013.1 1013.4 -
17/02:00am 6.3 4.1 6.3 100 0.0 NW 7 9 4 5 1013.3 1013.5 -
17/01:30am 5.6 2.9 5.6 100 0.0 N 9 9 5 5 1013.6 1013.9 -
17/01:13am 5.4 3.0 5.3 99 0.0 NNW 7 11 4 6 1013.5 1013.7 -
17/01:12am 5.5 3.1 5.4 99 0.0 NNW 7 11 4 6 1013.5 1013.7 -
17/01:00am 6.2 3.6 6.2 100 0.0 NW 9 9 5 5 1013.5 1013.7 -
17/12:30am 6.6 3.7 6.6 100 0.0 WNW 11 19 6 10 1013.7 1014.0 -
17/12:26am 6.8 3.9 6.7 99 0.0 W 11 15 6 8 1013.7 1014.0 -
17/12:00am 6.2 4.5 6.1 99 0.0 W 4 7 2 4 1013.7 1014.0 -
 
Date/Time
EST
Temp
°C
App
Temp
°C
Dew
Point
Rel
Hum
%
Delta-T
°C
Wind Press
QNH
hPa
Press
MSL
hPa
Rain
since 9 am
mm
Dir
 
Spd
km/h
Gust
km/h
Spd
kts
Gust
kts
16/11:30pm 5.6 4.6 5.5 99 0.0 CALM 0 0 0 0 1013.8 1014.1 -
16/11:03pm 5.7 3.9 5.6 99 0.0 NW 4 7 2 4 1013.9 1014.2 -
16/11:00pm 5.3 3.1 5.2 99 0.0 NW 6 7 3 4 1013.8 1014.1 -
16/10:30pm 7.4 5.4 7.3 99 0.0 SW 7 9 4 5 1013.9 1014.2 -
16/10:00pm 7.3 6.7 7.2 99 0.0 CALM 0 0 0 0 1014.1 1014.4 -
16/09:33pm 7.6 7.0 7.5 99 0.0 CALM 0 0 0 0 1014.3 1014.6 -
16/09:30pm 7.6 7.0 7.5 99 0.0 CALM 0 0 0 0 1014.2 1014.5 -
16/09:00pm 7.5 6.5 7.2 98 0.1 SE 2 6 1 3 1014.1 1014.4 0.2
16/08:30pm 7.4 6.7 7.1 98 0.1 CALM 0 0 0 0 1014.1 1014.4 -
16/08:00pm 7.3 5.8 7.0 98 0.1 S 4 6 2 3 1013.8 1014.1 -
16/07:30pm 6.5 3.6 4.7 88 0.8 S 9 13 5 7 1013.4 1013.6 -
16/07:00pm 7.8 5.1 5.8 87 0.9 S 9 13 5 7 1013.1 1013.4 -
16/06:30pm 8.6 5.5 5.5 81 1.4 SSW 11 15 6 8 1012.9 1013.2 -
16/06:00pm 9.6 5.4 5.6 76 1.9 SSW 17 26 9 14 1012.8 1013.1 -
16/05:30pm 10.2 5.4 5.4 72 2.2 SSW 20 32 11 17 1012.6 1012.9 -
16/05:00pm 10.5 5.1 4.6 67 2.7 SW 22 33 12 18 1012.4 1012.7 -
16/04:30pm 11.4 5.0 3.4 58 3.6 WSW 26 37 14 20 1012.2 1012.5 -
16/04:00pm 12.3 7.2 5.9 65 3.1 WSW 22 32 12 17 1011.9 1012.2 -
16/03:30pm 12.2 7.4 7.5 73 2.3 WSW 22 35 12 19 1011.8 1012.1 -
16/03:00pm 10.4 5.3 7.6 83 1.4 SW 24 39 13 21 1011.9 1012.2 -
16/02:30pm 9.9 6.8 9.0 94 0.5 SSW 15 22 8 12 1011.6 1011.8 0.0
16/02:06pm 9.3 5.5 9.0 98 0.2 SW 19 28 10 15 1011.5 1011.7 0.0
16/02:00pm 9.1 5.1 9.0 99 0.1 SW 20 30 11 16 1011.5 1011.7 0.0
16/01:30pm 9.4 5.7 9.3 99 0.1 SW 19 33 10 18 1011.3 1011.5 0.0
16/01:00pm 9.4 4.7 9.1 98 0.2 SW 24 32 13 17 1011.4 1011.6 0.0
16/12:30pm 9.4 5.1 9.3 99 0.1 SW 22 33 12 18 1011.4 1011.6 0.0
16/12:00pm 10.1 5.9 9.9 99 0.1 SW 22 32 12 17 1011.5 1011.7 0.0
16/11:30am 10.1 5.6 9.9 99 0.1 SSW 24 33 13 18 1011.5 1011.7 0.0
16/11:00am 10.5 6.8 10.2 98 0.2 SW 20 28 11 15 1011.4 1011.6 0.0
16/10:30am 11.0 7.0 10.4 96 0.3 SSW 22 35 12 19 1011.4 1011.6 0.0
16/10:00am 10.7 5.8 9.8 94 0.5 SSW 26 35 14 19 1011.4 1011.6 0.0

Other Formats:

Comma delimited format used in spreadsheet applications
http://www.bom.gov.au/fwo/IDV60801/IDV60801.94852.axf

JavaScript Object Notation format (JSON) in row-major order
http://www.bom.gov.au/fwo/IDV60801/IDV60801.94852.json